sensor_id;sensor_type;location;lat;lon;timestamp;P1;durP1;ratioP1;P2;durP2;ratioP2
35114;SDS011;21292;52.416;13.046;2023-04-24T00:01:19;11.68;;;7.55;;
35114;SDS011;21292;52.416;13.046;2023-04-24T00:03:48;9.52;;;7.57;;
35114;SDS011;21292;52.416;13.046;2023-04-24T00:06:18;8.80;;;7.57;;
35114;SDS011;21292;52.416;13.046;2023-04-24T00:08:49;9.85;;;7.95;;
35114;SDS011;21292;52.416;13.046;2023-04-24T00:11:19;10.65;;;7.40;;
35114;SDS011;21292;52.416;13.046;2023-04-24T00:13:48;11.05;;;7.40;;
35114;SDS011;21292;52.416;13.046;2023-04-24T00:16:16;11.25;;;8.35;;
35114;SDS011;21292;52.416;13.046;2023-04-24T00:18:44;12.13;;;8.48;;
35114;SDS011;21292;52.416;13.046;2023-04-24T00:21:15;10.43;;;7.90;;
35114;SDS011;21292;52.416;13.046;2023-04-24T00:23:44;11.10;;;7.97;;
35114;SDS011;21292;52.416;13.046;2023-04-24T00:26:12;11.35;;;7.93;;
35114;SDS011;21292;52.416;13.046;2023-04-24T00:28:40;9.98;;;7.90;;
35114;SDS011;21292;52.416;13.046;2023-04-24T00:31:09;8.55;;;7.65;;
35114;SDS011;21292;52.416;13.046;2023-04-24T00:33:38;9.60;;;7.22;;
35114;SDS011;21292;52.416;13.046;2023-04-24T00:36:07;9.98;;;8.18;;
35114;SDS011;21292;52.416;13.046;2023-04-24T00:38:38;10.85;;;8.27;;
35114;SDS011;21292;52.416;13.046;2023-04-24T00:41:08;10.80;;;8.38;;
35114;SDS011;21292;52.416;13.046;2023-04-24T00:43:37;9.65;;;7.97;;
35114;SDS011;21292;52.416;13.046;2023-04-24T00:46:06;10.85;;;7.78;;
35114;SDS011;21292;52.416;13.046;2023-04-24T00:48:35;10.48;;;8.07;;
35114;SDS011;21292;52.416;13.046;2023-04-24T00:51:06;10.43;;;8.27;;
35114;SDS011;21292;52.416;13.046;2023-04-24T00:53:35;9.65;;;8.23;;
35114;SDS011;21292;52.416;13.046;2023-04-24T00:56:05;11.43;;;8.63;;
35114;SDS011;21292;52.416;13.046;2023-04-24T00:58:33;12.13;;;7.50;;
35114;SDS011;21292;52.416;13.046;2023-04-24T01:01:01;10.93;;;9.45;;
35114;SDS011;21292;52.416;13.046;2023-04-24T01:03:34;10.57;;;8.32;;
35114;SDS011;21292;52.416;13.046;2023-04-24T01:06:05;9.13;;;7.75;;
35114;SDS011;21292;52.416;13.046;2023-04-24T01:08:33;12.15;;;8.85;;
35114;SDS011;21292;52.416;13.046;2023-04-24T01:11:02;9.52;;;8.10;;
35114;SDS011;21292;52.416;13.046;2023-04-24T01:13:33;13.25;;;8.75;;
35114;SDS011;21292;52.416;13.046;2023-04-24T01:16:02;12.52;;;9.25;;
35114;SDS011;21292;52.416;13.046;2023-04-24T01:18:31;10.63;;;9.15;;
35114;SDS011;21292;52.416;13.046;2023-04-24T01:20:59;10.20;;;8.30;;
35114;SDS011;21292;52.416;13.046;2023-04-24T01:23:33;10.35;;;8.35;;
35114;SDS011;21292;52.416;13.046;2023-04-24T01:26:02;11.63;;;9.13;;
35114;SDS011;21292;52.416;13.046;2023-04-24T01:28:30;12.00;;;9.18;;
35114;SDS011;21292;52.416;13.046;2023-04-24T01:30:59;10.18;;;8.70;;
35114;SDS011;21292;52.416;13.046;2023-04-24T01:33:27;13.07;;;9.15;;
35114;SDS011;21292;52.416;13.046;2023-04-24T01:35:55;12.90;;;9.30;;
35114;SDS011;21292;52.416;13.046;2023-04-24T01:38:24;11.55;;;8.50;;
35114;SDS011;21292;52.416;13.046;2023-04-24T01:40:55;10.70;;;9.15;;
35114;SDS011;21292;52.416;13.046;2023-04-24T01:43:23;12.52;;;9.38;;
35114;SDS011;21292;52.416;13.046;2023-04-24T01:45:52;10.60;;;8.88;;
35114;SDS011;21292;52.416;13.046;2023-04-24T01:48:22;10.30;;;8.68;;
35114;SDS011;21292;52.416;13.046;2023-04-24T01:50:51;14.77;;;9.18;;
35114;SDS011;21292;52.416;13.046;2023-04-24T01:53:19;10.15;;;8.57;;
35114;SDS011;21292;52.416;13.046;2023-04-24T01:55:48;12.32;;;8.93;;
35114;SDS011;21292;52.416;13.046;2023-04-24T01:58:18;11.32;;;8.65;;
35114;SDS011;21292;52.416;13.046;2023-04-24T02:00:47;11.25;;;9.25;;
35114;SDS011;21292;52.416;13.046;2023-04-24T02:03:22;13.98;;;8.70;;
35114;SDS011;21292;52.416;13.046;2023-04-24T02:05:51;11.00;;;9.13;;
35114;SDS011;21292;52.416;13.046;2023-04-24T02:08:19;12.07;;;9.57;;
35114;SDS011;21292;52.416;13.046;2023-04-24T02:10:47;12.15;;;8.93;;
35114;SDS011;21292;52.416;13.046;2023-04-24T02:13:17;13.20;;;9.23;;
35114;SDS011;21292;52.416;13.046;2023-04-24T02:15:46;11.52;;;9.30;;
35114;SDS011;21292;52.416;13.046;2023-04-24T02:18:14;13.18;;;8.70;;
35114;SDS011;21292;52.416;13.046;2023-04-24T02:20:44;10.68;;;9.23;;
35114;SDS011;21292;52.416;13.046;2023-04-24T02:23:12;12.30;;;9.02;;
35114;SDS011;21292;52.416;13.046;2023-04-24T02:25:41;11.35;;;9.38;;
35114;SDS011;21292;52.416;13.046;2023-04-24T02:28:09;11.27;;;8.93;;
35114;SDS011;21292;52.416;13.046;2023-04-24T02:30:39;11.75;;;9.05;;
35114;SDS011;21292;52.416;13.046;2023-04-24T02:33:07;11.13;;;8.95;;
35114;SDS011;21292;52.416;13.046;2023-04-24T02:35:36;10.32;;;8.93;;
35114;SDS011;21292;52.416;13.046;2023-04-24T02:38:04;12.27;;;8.75;;
35114;SDS011;21292;52.416;13.046;2023-04-24T02:40:32;10.25;;;8.88;;
35114;SDS011;21292;52.416;13.046;2023-04-24T02:43:00;11.43;;;9.15;;
35114;SDS011;21292;52.416;13.046;2023-04-24T02:45:29;11.43;;;9.00;;
35114;SDS011;21292;52.416;13.046;2023-04-24T02:47:59;10.63;;;8.77;;
35114;SDS011;21292;52.416;13.046;2023-04-24T02:50:30;13.60;;;9.30;;
35114;SDS011;21292;52.416;13.046;2023-04-24T02:52:58;13.93;;;8.65;;
35114;SDS011;21292;52.416;13.046;2023-04-24T02:55:27;10.85;;;9.27;;
35114;SDS011;21292;52.416;13.046;2023-04-24T02:57:58;11.70;;;9.07;;
35114;SDS011;21292;52.416;13.046;2023-04-24T03:00:26;13.60;;;9.15;;
35114;SDS011;21292;52.416;13.046;2023-04-24T03:02:54;13.30;;;9.30;;
35114;SDS011;21292;52.416;13.046;2023-04-24T03:05:25;11.98;;;9.40;;
35114;SDS011;21292;52.416;13.046;2023-04-24T03:07:54;10.60;;;8.48;;
35114;SDS011;21292;52.416;13.046;2023-04-24T03:10:23;10.20;;;9.07;;
35114;SDS011;21292;52.416;13.046;2023-04-24T03:12:52;13.02;;;8.60;;
35114;SDS011;21292;52.416;13.046;2023-04-24T03:15:21;10.52;;;8.82;;
35114;SDS011;21292;52.416;13.046;2023-04-24T03:17:50;12.05;;;9.00;;
35114;SDS011;21292;52.416;13.046;2023-04-24T03:20:22;11.35;;;9.38;;
35114;SDS011;21292;52.416;13.046;2023-04-24T03:22:55;14.02;;;7.90;;
35114;SDS011;21292;52.416;13.046;2023-04-24T03:25:24;10.90;;;8.35;;
35114;SDS011;21292;52.416;13.046;2023-04-24T03:27:52;9.32;;;8.32;;
35114;SDS011;21292;52.416;13.046;2023-04-24T03:30:21;10.05;;;8.20;;
35114;SDS011;21292;52.416;13.046;2023-04-24T03:32:52;12.50;;;9.30;;
35114;SDS011;21292;52.416;13.046;2023-04-24T03:35:22;11.52;;;8.13;;
35114;SDS011;21292;52.416;13.046;2023-04-24T03:37:50;13.20;;;8.23;;
35114;SDS011;21292;52.416;13.046;2023-04-24T03:40:20;10.77;;;7.50;;
35114;SDS011;21292;52.416;13.046;2023-04-24T03:42:48;7.05;;;6.13;;
35114;SDS011;21292;52.416;13.046;2023-04-24T03:45:18;9.98;;;6.95;;
35114;SDS011;21292;52.416;13.046;2023-04-24T03:47:47;9.15;;;7.38;;
35114;SDS011;21292;52.416;13.046;2023-04-24T03:50:16;9.60;;;6.68;;
35114;SDS011;21292;52.416;13.046;2023-04-24T03:52:45;7.40;;;6.30;;
35114;SDS011;21292;52.416;13.046;2023-04-24T03:55:13;8.95;;;6.40;;
35114;SDS011;21292;52.416;13.046;2023-04-24T03:57:45;8.45;;;6.78;;
35114;SDS011;21292;52.416;13.046;2023-04-24T04:00:14;8.80;;;6.75;;
35114;SDS011;21292;52.416;13.046;2023-04-24T04:02:42;10.18;;;6.55;;
35114;SDS011;21292;52.416;13.046;2023-04-24T04:05:11;6.30;;;5.70;;
35114;SDS011;21292;52.416;13.046;2023-04-24T04:07:41;10.52;;;5.97;;
35114;SDS011;21292;52.416;13.046;2023-04-24T04:10:10;9.50;;;6.20;;
35114;SDS011;21292;52.416;13.046;2023-04-24T04:12:38;7.32;;;6.22;;
35114;SDS011;21292;52.416;13.046;2023-04-24T04:15:08;6.68;;;5.88;;
35114;SDS011;21292;52.416;13.046;2023-04-24T04:17:38;6.60;;;5.85;;
35114;SDS011;21292;52.416;13.046;2023-04-24T04:20:07;8.63;;;7.07;;
35114;SDS011;21292;52.416;13.046;2023-04-24T04:22:37;8.35;;;6.30;;
35114;SDS011;21292;52.416;13.046;2023-04-24T04:25:10;10.80;;;6.57;;
35114;SDS011;21292;52.416;13.046;2023-04-24T04:27:40;8.25;;;6.22;;
35114;SDS011;21292;52.416;13.046;2023-04-24T04:30:10;6.90;;;6.13;;
35114;SDS011;21292;52.416;13.046;2023-04-24T04:32:39;9.05;;;6.22;;
35114;SDS011;21292;52.416;13.046;2023-04-24T04:35:08;6.82;;;5.70;;
35114;SDS011;21292;52.416;13.046;2023-04-24T04:37:36;6.95;;;5.90;;
35114;SDS011;21292;52.416;13.046;2023-04-24T04:40:08;10.95;;;5.60;;
35114;SDS011;21292;52.416;13.046;2023-04-24T04:42:38;9.35;;;4.85;;
35114;SDS011;21292;52.416;13.046;2023-04-24T04:45:07;6.07;;;5.30;;
35114;SDS011;21292;52.416;13.046;2023-04-24T04:47:40;6.22;;;5.32;;
35114;SDS011;21292;52.416;13.046;2023-04-24T04:50:09;6.57;;;5.00;;
35114;SDS011;21292;52.416;13.046;2023-04-24T04:52:38;8.27;;;4.85;;
35114;SDS011;21292;52.416;13.046;2023-04-24T04:55:06;6.15;;;4.45;;
35114;SDS011;21292;52.416;13.046;2023-04-24T04:57:36;9.75;;;4.53;;
35114;SDS011;21292;52.416;13.046;2023-04-24T05:00:05;6.65;;;4.18;;
35114;SDS011;21292;52.416;13.046;2023-04-24T05:02:37;5.40;;;4.20;;
35114;SDS011;21292;52.416;13.046;2023-04-24T05:05:08;9.13;;;5.50;;
35114;SDS011;21292;52.416;13.046;2023-04-24T05:07:36;7.93;;;4.10;;
35114;SDS011;21292;52.416;13.046;2023-04-24T05:10:05;7.53;;;4.28;;
35114;SDS011;21292;52.416;13.046;2023-04-24T05:12:34;6.85;;;4.32;;
35114;SDS011;21292;52.416;13.046;2023-04-24T05:15:03;5.18;;;3.40;;
35114;SDS011;21292;52.416;13.046;2023-04-24T05:17:31;5.32;;;3.55;;
35114;SDS011;21292;52.416;13.046;2023-04-24T05:20:00;5.28;;;3.35;;
35114;SDS011;21292;52.416;13.046;2023-04-24T05:22:30;4.55;;;3.28;;
35114;SDS011;21292;52.416;13.046;2023-04-24T05:24:58;5.80;;;2.63;;
35114;SDS011;21292;52.416;13.046;2023-04-24T05:27:26;6.65;;;2.90;;
35114;SDS011;21292;52.416;13.046;2023-04-24T05:29:54;4.65;;;2.80;;
35114;SDS011;21292;52.416;13.046;2023-04-24T05:32:22;5.20;;;2.53;;
35114;SDS011;21292;52.416;13.046;2023-04-24T05:34:50;4.13;;;2.83;;
35114;SDS011;21292;52.416;13.046;2023-04-24T05:37:19;4.63;;;1.98;;
35114;SDS011;21292;52.416;13.046;2023-04-24T05:39:48;2.38;;;2.17;;
35114;SDS011;21292;52.416;13.046;2023-04-24T05:42:18;2.05;;;1.83;;
35114;SDS011;21292;52.416;13.046;2023-04-24T05:44:46;2.15;;;1.95;;
35114;SDS011;21292;52.416;13.046;2023-04-24T05:47:17;6.80;;;2.00;;
35114;SDS011;21292;52.416;13.046;2023-04-24T05:49:46;2.65;;;1.50;;
35114;SDS011;21292;52.416;13.046;2023-04-24T05:52:14;1.98;;;1.77;;
35114;SDS011;21292;52.416;13.046;2023-04-24T05:54:50;2.30;;;1.70;;
35114;SDS011;21292;52.416;13.046;2023-04-24T05:57:19;3.90;;;2.00;;
35114;SDS011;21292;52.416;13.046;2023-04-24T05:59:49;1.40;;;1.30;;
35114;SDS011;21292;52.416;13.046;2023-04-24T06:02:18;1.67;;;1.27;;
35114;SDS011;21292;52.416;13.046;2023-04-24T06:04:46;1.40;;;1.30;;
35114;SDS011;21292;52.416;13.046;2023-04-24T06:07:18;1.27;;;1.17;;
35114;SDS011;21292;52.416;13.046;2023-04-24T06:09:47;1.02;;;1.00;;
35114;SDS011;21292;52.416;13.046;2023-04-24T06:12:19;1.52;;;1.40;;
35114;SDS011;21292;52.416;13.046;2023-04-24T06:14:49;1.15;;;1.05;;
35114;SDS011;21292;52.416;13.046;2023-04-24T06:17:18;3.15;;;1.10;;
35114;SDS011;21292;52.416;13.046;2023-04-24T06:19:46;2.47;;;1.40;;
35114;SDS011;21292;52.416;13.046;2023-04-24T06:22:15;3.05;;;1.25;;
35114;SDS011;21292;52.416;13.046;2023-04-24T06:24:43;1.48;;;1.00;;
35114;SDS011;21292;52.416;13.046;2023-04-24T06:27:11;2.05;;;1.10;;
35114;SDS011;21292;52.416;13.046;2023-04-24T06:29:42;1.75;;;1.10;;
35114;SDS011;21292;52.416;13.046;2023-04-24T06:32:11;2.22;;;1.05;;
35114;SDS011;21292;52.416;13.046;2023-04-24T06:34:39;2.33;;;1.00;;
35114;SDS011;21292;52.416;13.046;2023-04-24T06:37:08;1.17;;;1.00;;
35114;SDS011;21292;52.416;13.046;2023-04-24T06:39:38;1.75;;;0.90;;
35114;SDS011;21292;52.416;13.046;2023-04-24T06:42:06;1.45;;;0.88;;
35114;SDS011;21292;52.416;13.046;2023-04-24T06:44:36;1.10;;;0.90;;
35114;SDS011;21292;52.416;13.046;2023-04-24T06:47:09;2.83;;;0.90;;
35114;SDS011;21292;52.416;13.046;2023-04-24T06:52:08;0.80;;;0.80;;
35114;SDS011;21292;52.416;13.046;2023-04-24T06:54:37;3.72;;;1.13;;
35114;SDS011;21292;52.416;13.046;2023-04-24T06:57:05;2.15;;;1.73;;
35114;SDS011;21292;52.416;13.046;2023-04-24T06:59:34;1.73;;;1.08;;
35114;SDS011;21292;52.416;13.046;2023-04-24T07:02:02;0.73;;;0.73;;
35114;SDS011;21292;52.416;13.046;2023-04-24T07:07:05;2.22;;;0.77;;
35114;SDS011;21292;52.416;13.046;2023-04-24T07:09:35;2.30;;;1.00;;
35114;SDS011;21292;52.416;13.046;2023-04-24T07:12:05;2.10;;;1.00;;
35114;SDS011;21292;52.416;13.046;2023-04-24T07:14:36;1.50;;;0.85;;
35114;SDS011;21292;52.416;13.046;2023-04-24T07:17:06;3.30;;;0.90;;
35114;SDS011;21292;52.416;13.046;2023-04-24T07:19:34;2.15;;;0.73;;
35114;SDS011;21292;52.416;13.046;2023-04-24T07:22:04;1.42;;;0.80;;
35114;SDS011;21292;52.416;13.046;2023-04-24T07:24:32;0.65;;;0.55;;
35114;SDS011;21292;52.416;13.046;2023-04-24T07:27:00;2.22;;;1.00;;
35114;SDS011;21292;52.416;13.046;2023-04-24T07:29:29;1.67;;;0.80;;
35114;SDS011;21292;52.416;13.046;2023-04-24T07:31:59;1.77;;;1.10;;
35114;SDS011;21292;52.416;13.046;2023-04-24T07:34:31;0.75;;;0.73;;
35114;SDS011;21292;52.416;13.046;2023-04-24T07:37:00;1.88;;;0.65;;
35114;SDS011;21292;52.416;13.046;2023-04-24T07:39:32;2.25;;;0.85;;
35114;SDS011;21292;52.416;13.046;2023-04-24T07:42:00;2.20;;;0.68;;
35114;SDS011;21292;52.416;13.046;2023-04-24T07:44:29;2.13;;;0.77;;
35114;SDS011;21292;52.416;13.046;2023-04-24T07:46:59;0.77;;;0.70;;
35114;SDS011;21292;52.416;13.046;2023-04-24T07:49:27;1.75;;;1.10;;
35114;SDS011;21292;52.416;13.046;2023-04-24T07:51:55;1.40;;;0.60;;
35114;SDS011;21292;52.416;13.046;2023-04-24T07:54:23;0.82;;;0.70;;
35114;SDS011;21292;52.416;13.046;2023-04-24T07:56:53;0.80;;;0.70;;
35114;SDS011;21292;52.416;13.046;2023-04-24T07:59:23;1.63;;;0.70;;
35114;SDS011;21292;52.416;13.046;2023-04-24T08:01:52;3.10;;;0.70;;
35114;SDS011;21292;52.416;13.046;2023-04-24T08:04:20;1.20;;;0.90;;
35114;SDS011;21292;52.416;13.046;2023-04-24T08:06:50;3.08;;;1.25;;
35114;SDS011;21292;52.416;13.046;2023-04-24T08:09:19;1.92;;;0.70;;
35114;SDS011;21292;52.416;13.046;2023-04-24T08:11:53;2.47;;;0.70;;
35114;SDS011;21292;52.416;13.046;2023-04-24T08:14:21;1.15;;;0.70;;
35114;SDS011;21292;52.416;13.046;2023-04-24T08:16:49;1.75;;;0.80;;
35114;SDS011;21292;52.416;13.046;2023-04-24T08:19:18;1.25;;;0.60;;
35114;SDS011;21292;52.416;13.046;2023-04-24T08:21:46;1.98;;;0.88;;
35114;SDS011;21292;52.416;13.046;2023-04-24T08:24:14;1.00;;;0.95;;
35114;SDS011;21292;52.416;13.046;2023-04-24T08:26:44;1.77;;;0.93;;
35114;SDS011;21292;52.416;13.046;2023-04-24T08:29:14;1.15;;;0.70;;
35114;SDS011;21292;52.416;13.046;2023-04-24T08:31:42;3.03;;;0.90;;
35114;SDS011;21292;52.416;13.046;2023-04-24T08:34:11;1.38;;;0.90;;
35114;SDS011;21292;52.416;13.046;2023-04-24T08:36:39;0.90;;;0.80;;
35114;SDS011;21292;52.416;13.046;2023-04-24T08:39:13;1.60;;;0.82;;
35114;SDS011;21292;52.416;13.046;2023-04-24T08:41:42;1.52;;;1.08;;
35114;SDS011;21292;52.416;13.046;2023-04-24T08:44:18;1.65;;;0.93;;
35114;SDS011;21292;52.416;13.046;2023-04-24T08:46:49;1.48;;;1.00;;
35114;SDS011;21292;52.416;13.046;2023-04-24T08:49:26;2.35;;;1.33;;
35114;SDS011;21292;52.416;13.046;2023-04-24T08:51:57;1.48;;;1.02;;
35114;SDS011;21292;52.416;13.046;2023-04-24T08:54:26;2.08;;;0.80;;
35114;SDS011;21292;52.416;13.046;2023-04-24T08:56:55;0.70;;;0.63;;
35114;SDS011;21292;52.416;13.046;2023-04-24T08:59:29;10.55;;;0.90;;
35114;SDS011;21292;52.416;13.046;2023-04-24T09:01:58;2.42;;;1.08;;
35114;SDS011;21292;52.416;13.046;2023-04-24T09:04:27;1.55;;;0.80;;
35114;SDS011;21292;52.416;13.046;2023-04-24T09:06:57;2.95;;;1.00;;
35114;SDS011;21292;52.416;13.046;2023-04-24T09:09:29;2.30;;;1.13;;
35114;SDS011;21292;52.416;13.046;2023-04-24T09:11:58;1.67;;;0.93;;
35114;SDS011;21292;52.416;13.046;2023-04-24T09:14:33;2.08;;;0.90;;
35114;SDS011;21292;52.416;13.046;2023-04-24T09:17:03;1.25;;;0.77;;
35114;SDS011;21292;52.416;13.046;2023-04-24T09:19:34;2.08;;;0.82;;
35114;SDS011;21292;52.416;13.046;2023-04-24T09:22:04;2.88;;;0.80;;
35114;SDS011;21292;52.416;13.046;2023-04-24T09:24:36;3.00;;;0.93;;
35114;SDS011;21292;52.416;13.046;2023-04-24T09:27:05;2.83;;;1.30;;
35114;SDS011;21292;52.416;13.046;2023-04-24T09:29:38;1.13;;;1.02;;
35114;SDS011;21292;52.416;13.046;2023-04-24T09:32:17;2.83;;;0.95;;
35114;SDS011;21292;52.416;13.046;2023-04-24T09:37:34;1.90;;;0.80;;
35114;SDS011;21292;52.416;13.046;2023-04-24T09:40:08;0.50;;;0.50;;
35114;SDS011;21292;52.416;13.046;2023-04-24T09:42:40;4.10;;;1.02;;
35114;SDS011;21292;52.416;13.046;2023-04-24T09:47:45;2.22;;;0.80;;
35114;SDS011;21292;52.416;13.046;2023-04-24T09:50:17;5.60;;;1.37;;
35114;SDS011;21292;52.416;13.046;2023-04-24T09:52:56;2.30;;;0.90;;
35114;SDS011;21292;52.416;13.046;2023-04-24T09:55:26;1.38;;;0.90;;
35114;SDS011;21292;52.416;13.046;2023-04-24T09:57:55;1.25;;;0.75;;
35114;SDS011;21292;52.416;13.046;2023-04-24T10:00:28;1.23;;;0.73;;
35114;SDS011;21292;52.416;13.046;2023-04-24T10:02:58;2.28;;;0.70;;
35114;SDS011;21292;52.416;13.046;2023-04-24T10:05:35;1.33;;;0.80;;
35114;SDS011;21292;52.416;13.046;2023-04-24T10:08:06;2.60;;;1.02;;
35114;SDS011;21292;52.416;13.046;2023-04-24T10:10:35;1.52;;;0.70;;
35114;SDS011;21292;52.416;13.046;2023-04-24T10:13:06;1.45;;;0.80;;
35114;SDS011;21292;52.416;13.046;2023-04-24T10:15:36;1.10;;;0.80;;
35114;SDS011;21292;52.416;13.046;2023-04-24T10:18:08;0.85;;;0.85;;
35114;SDS011;21292;52.416;13.046;2023-04-24T10:20:38;1.58;;;0.88;;
35114;SDS011;21292;52.416;13.046;2023-04-24T10:23:07;2.20;;;0.88;;
35114;SDS011;21292;52.416;13.046;2023-04-24T10:25:35;2.30;;;0.90;;
35114;SDS011;21292;52.416;13.046;2023-04-24T10:28:06;1.70;;;0.77;;
35114;SDS011;21292;52.416;13.046;2023-04-24T10:30:39;0.95;;;0.70;;
35114;SDS011;21292;52.416;13.046;2023-04-24T10:33:11;2.80;;;0.90;;
35114;SDS011;21292;52.416;13.046;2023-04-24T10:35:44;2.83;;;0.95;;
35114;SDS011;21292;52.416;13.046;2023-04-24T10:38:18;0.75;;;0.60;;
35114;SDS011;21292;52.416;13.046;2023-04-24T10:40:56;1.33;;;0.73;;
35114;SDS011;21292;52.416;13.046;2023-04-24T10:43:26;1.02;;;1.00;;
35114;SDS011;21292;52.416;13.046;2023-04-24T10:46:03;1.35;;;0.88;;
35114;SDS011;21292;52.416;13.046;2023-04-24T10:48:33;1.40;;;1.00;;
35114;SDS011;21292;52.416;13.046;2023-04-24T10:51:10;5.00;;;1.02;;
35114;SDS011;21292;52.416;13.046;2023-04-24T10:53:41;2.13;;;1.13;;
35114;SDS011;21292;52.416;13.046;2023-04-24T10:56:26;2.13;;;1.20;;
35114;SDS011;21292;52.416;13.046;2023-04-24T10:59:07;1.55;;;1.33;;
35114;SDS011;21292;52.416;13.046;2023-04-24T11:01:47;2.08;;;1.20;;
35114;SDS011;21292;52.416;13.046;2023-04-24T11:04:36;2.50;;;1.15;;
35114;SDS011;21292;52.416;13.046;2023-04-24T11:07:17;4.82;;;1.42;;
35114;SDS011;21292;52.416;13.046;2023-04-24T11:09:46;0.82;;;0.80;;
35114;SDS011;21292;52.416;13.046;2023-04-24T11:12:22;1.77;;;0.90;;
35114;SDS011;21292;52.416;13.046;2023-04-24T11:15:00;1.80;;;0.90;;
35114;SDS011;21292;52.416;13.046;2023-04-24T11:17:32;1.40;;;0.75;;
35114;SDS011;21292;52.416;13.046;2023-04-24T11:20:01;2.47;;;0.80;;
35114;SDS011;21292;52.416;13.046;2023-04-24T11:22:53;2.63;;;0.77;;
35114;SDS011;21292;52.416;13.046;2023-04-24T11:25:24;0.40;;;0.40;;
35114;SDS011;21292;52.416;13.046;2023-04-24T11:28:02;1.35;;;0.65;;
35114;SDS011;21292;52.416;13.046;2023-04-24T11:30:36;0.95;;;0.70;;
35114;SDS011;21292;52.416;13.046;2023-04-24T11:33:14;1.75;;;0.60;;
35114;SDS011;21292;52.416;13.046;2023-04-24T11:35:47;3.42;;;0.60;;
35114;SDS011;21292;52.416;13.046;2023-04-24T11:38:18;0.60;;;0.60;;
35114;SDS011;21292;52.416;13.046;2023-04-24T11:40:51;0.93;;;0.90;;
35114;SDS011;21292;52.416;13.046;2023-04-24T11:43:20;0.80;;;0.80;;
35114;SDS011;21292;52.416;13.046;2023-04-24T11:45:48;0.75;;;0.60;;
35114;SDS011;21292;52.416;13.046;2023-04-24T11:48:19;2.03;;;0.90;;
35114;SDS011;21292;52.416;13.046;2023-04-24T11:50:51;0.80;;;0.70;;
35114;SDS011;21292;52.416;13.046;2023-04-24T11:53:19;1.50;;;0.40;;
35114;SDS011;21292;52.416;13.046;2023-04-24T11:55:52;0.93;;;0.70;;
35114;SDS011;21292;52.416;13.046;2023-04-24T11:58:22;1.00;;;0.70;;
35114;SDS011;21292;52.416;13.046;2023-04-24T12:00:55;3.40;;;0.70;;
35114;SDS011;21292;52.416;13.046;2023-04-24T12:03:26;1.67;;;1.08;;
35114;SDS011;21292;52.416;13.046;2023-04-24T12:06:04;2.55;;;0.52;;
35114;SDS011;21292;52.416;13.046;2023-04-24T12:08:33;2.53;;;0.88;;
35114;SDS011;21292;52.416;13.046;2023-04-24T12:11:05;1.25;;;0.80;;
35114;SDS011;21292;52.416;13.046;2023-04-24T12:13:36;3.38;;;0.80;;
35114;SDS011;21292;52.416;13.046;2023-04-24T12:16:04;2.90;;;0.80;;
35114;SDS011;21292;52.416;13.046;2023-04-24T12:18:34;0.65;;;0.65;;
35114;SDS011;21292;52.416;13.046;2023-04-24T12:21:15;1.05;;;0.70;;
35114;SDS011;21292;52.416;13.046;2023-04-24T12:23:48;2.13;;;0.80;;
35114;SDS011;21292;52.416;13.046;2023-04-24T12:26:17;2.58;;;0.70;;
35114;SDS011;21292;52.416;13.046;2023-04-24T12:28:49;1.77;;;0.80;;
35114;SDS011;21292;52.416;13.046;2023-04-24T12:31:17;1.90;;;0.80;;
35114;SDS011;21292;52.416;13.046;2023-04-24T12:33:52;1.45;;;0.90;;
35114;SDS011;21292;52.416;13.046;2023-04-24T12:36:21;2.65;;;0.75;;
35114;SDS011;21292;52.416;13.046;2023-04-24T12:38:52;2.08;;;0.88;;
35114;SDS011;21292;52.416;13.046;2023-04-24T12:44:29;2.97;;;1.02;;
35114;SDS011;21292;52.416;13.046;2023-04-24T12:47:04;0.85;;;0.70;;
35114;SDS011;21292;52.416;13.046;2023-04-24T12:49:34;1.00;;;0.90;;
35114;SDS011;21292;52.416;13.046;2023-04-24T12:52:02;1.38;;;0.65;;
35114;SDS011;21292;52.416;13.046;2023-04-24T12:54:32;1.40;;;0.90;;
35114;SDS011;21292;52.416;13.046;2023-04-24T12:57:00;1.85;;;0.90;;
35114;SDS011;21292;52.416;13.046;2023-04-24T12:59:28;0.55;;;0.55;;
35114;SDS011;21292;52.416;13.046;2023-04-24T13:02:05;1.33;;;0.90;;
35114;SDS011;21292;52.416;13.046;2023-04-24T13:04:40;0.73;;;0.73;;
35114;SDS011;21292;52.416;13.046;2023-04-24T13:07:14;3.30;;;0.75;;
35114;SDS011;21292;52.416;13.046;2023-04-24T13:09:50;2.05;;;0.70;;
35114;SDS011;21292;52.416;13.046;2023-04-24T13:12:26;1.58;;;0.63;;
35114;SDS011;21292;52.416;13.046;2023-04-24T13:14:57;1.25;;;0.82;;
35114;SDS011;21292;52.416;13.046;2023-04-24T13:17:26;2.50;;;0.98;;
35114;SDS011;21292;52.416;13.046;2023-04-24T13:19:56;1.55;;;0.70;;
35114;SDS011;21292;52.416;13.046;2023-04-24T13:22:30;0.93;;;0.80;;
35114;SDS011;21292;52.416;13.046;2023-04-24T13:24:58;2.00;;;0.82;;
35114;SDS011;21292;52.416;13.046;2023-04-24T13:27:28;6.47;;;1.85;;
35114;SDS011;21292;52.416;13.046;2023-04-24T13:29:56;2.92;;;0.93;;
35114;SDS011;21292;52.416;13.046;2023-04-24T13:32:25;1.00;;;0.70;;
35114;SDS011;21292;52.416;13.046;2023-04-24T13:34:53;1.35;;;0.75;;
35114;SDS011;21292;52.416;13.046;2023-04-24T13:37:24;1.13;;;0.60;;
35114;SDS011;21292;52.416;13.046;2023-04-24T13:39:52;0.82;;;0.80;;
35114;SDS011;21292;52.416;13.046;2023-04-24T13:42:20;1.42;;;0.80;;
35114;SDS011;21292;52.416;13.046;2023-04-24T13:44:49;1.70;;;0.93;;
35114;SDS011;21292;52.416;13.046;2023-04-24T13:47:18;1.05;;;0.93;;
35114;SDS011;21292;52.416;13.046;2023-04-24T13:49:46;1.58;;;0.95;;
35114;SDS011;21292;52.416;13.046;2023-04-24T13:52:15;0.75;;;0.75;;
35114;SDS011;21292;52.416;13.046;2023-04-24T13:54:46;2.00;;;0.95;;
35114;SDS011;21292;52.416;13.046;2023-04-24T13:57:14;1.65;;;1.20;;
35114;SDS011;21292;52.416;13.046;2023-04-24T13:59:43;1.23;;;1.10;;
35114;SDS011;21292;52.416;13.046;2023-04-24T14:02:12;2.08;;;0.80;;
35114;SDS011;21292;52.416;13.046;2023-04-24T14:04:41;1.15;;;0.85;;
35114;SDS011;21292;52.416;13.046;2023-04-24T14:07:10;1.92;;;0.90;;
35114;SDS011;21292;52.416;13.046;2023-04-24T14:09:39;1.75;;;0.77;;
35114;SDS011;21292;52.416;13.046;2023-04-24T14:12:09;2.20;;;0.70;;
35114;SDS011;21292;52.416;13.046;2023-04-24T14:14:37;2.58;;;1.10;;
35114;SDS011;21292;52.416;13.046;2023-04-24T14:17:05;1.25;;;0.82;;
35114;SDS011;21292;52.416;13.046;2023-04-24T14:19:33;2.88;;;1.00;;
35114;SDS011;21292;52.416;13.046;2023-04-24T14:22:02;0.95;;;0.80;;
35114;SDS011;21292;52.416;13.046;2023-04-24T14:24:30;1.33;;;0.90;;
35114;SDS011;21292;52.416;13.046;2023-04-24T14:26:58;1.55;;;1.08;;
35114;SDS011;21292;52.416;13.046;2023-04-24T14:29:28;2.05;;;1.15;;
35114;SDS011;21292;52.416;13.046;2023-04-24T14:31:56;1.08;;;0.90;;
35114;SDS011;21292;52.416;13.046;2023-04-24T14:34:24;0.90;;;0.90;;
35114;SDS011;21292;52.416;13.046;2023-04-24T14:36:52;1.10;;;1.00;;
35114;SDS011;21292;52.416;13.046;2023-04-24T14:39:21;1.40;;;1.27;;
35114;SDS011;21292;52.416;13.046;2023-04-24T14:41:52;1.50;;;1.20;;
35114;SDS011;21292;52.416;13.046;2023-04-24T14:44:20;1.58;;;1.48;;
35114;SDS011;21292;52.416;13.046;2023-04-24T14:46:50;4.15;;;1.27;;
35114;SDS011;21292;52.416;13.046;2023-04-24T14:49:18;1.05;;;1.00;;
35114;SDS011;21292;52.416;13.046;2023-04-24T14:51:47;2.55;;;1.02;;
35114;SDS011;21292;52.416;13.046;2023-04-24T14:54:15;1.27;;;0.82;;
35114;SDS011;21292;52.416;13.046;2023-04-24T14:56:46;3.20;;;1.20;;
35114;SDS011;21292;52.416;13.046;2023-04-24T14:59:14;3.85;;;1.20;;
35114;SDS011;21292;52.416;13.046;2023-04-24T15:01:42;2.05;;;1.27;;